Time;durP1;ratioP1;P1;durP2;ratioP2;P2;SDS_P1;SDS_P2;PMS_P1;PMS_P2;Temp;Humidity;BMP_temperature;BMP_pressure;BME280_temperature;BME280_humidity;BME280_pressure;Samples;Min_cycle;Max_cycle;Signal;HPM_P1;HPM_P2
2023/12/01 00:02:06;;;;;;;350.35;74.43;;;;;;;-0.34;100.00;100449.84;5079478;27;20044;-74
2023/12/01 00:04:32;;;;;;;293.90;66.40;;;;;;;-0.09;100.00;100458.81;5053863;28;20040;-74
2023/12/01 00:06:57;;;;;;;294.10;66.47;;;;;;;-0.03;100.00;100461.25;5074529;28;20171;-74
2023/12/01 00:09:23;;;;;;;326.05;71.75;;;;;;;-0.16;100.00;100464.22;5078419;28;20040;-74
2023/12/01 00:11:49;;;;;;;329.08;69.60;;;;;;;-0.12;100.00;100463.25;5077828;28;20144;-74
2023/12/01 00:14:14;;;;;;;319.58;72.07;;;;;;;-0.14;100.00;100458.06;5072695;28;20033;-73
2023/12/01 00:16:40;;;;;;;367.30;77.50;;;;;;;-0.21;100.00;100466.97;5072872;28;20106;-74
2023/12/01 00:19:05;;;;;;;364.27;77.03;;;;;;;-0.14;100.00;100471.16;5062021;28;20083;-74
2023/12/01 00:21:31;;;;;;;298.05;69.35;;;;;;;-0.03;100.00;100468.25;5055494;28;20040;-74
2023/12/01 00:23:56;;;;;;;326.17;71.97;;;;;;;0.07;100.00;100463.66;5073192;28;20043;-74
2023/12/01 00:26:22;;;;;;;350.25;74.03;;;;;;;-0.02;100.00;100462.13;5079221;28;20043;-73
2023/12/01 00:28:55;;;;;;;370.77;78.95;;;;;;;0.09;100.00;100467.06;5079354;28;20032;-74
2023/12/01 00:31:21;;;;;;;317.70;71.80;;;;;;;0.14;100.00;100465.19;5075386;28;20036;-73
2023/12/01 00:33:46;;;;;;;362.02;76.78;;;;;;;-0.11;100.00;100483.31;5059505;28;20041;-73
2023/12/01 00:36:12;;;;;;;341.77;77.55;;;;;;;0.09;100.00;100478.41;5075814;28;20052;-74
2023/12/01 00:38:37;;;;;;;304.90;70.43;;;;;;;0.08;100.00;100470.59;5063750;28;20533;-73
2023/12/01 00:41:03;;;;;;;296.63;69.97;;;;;;;0.11;100.00;100475.78;5059585;28;20098;-74
2023/12/01 00:43:29;;;;;;;300.23;71.75;;;;;;;-0.02;100.00;100473.47;5046517;28;20045;-73
2023/12/01 00:45:54;;;;;;;332.17;76.75;;;;;;;0.23;100.00;100472.81;5060654;28;20033;-73
2023/12/01 00:48:20;;;;;;;267.85;69.25;;;;;;;0.21;100.00;100472.00;5068091;28;20043;-73
2023/12/01 00:50:45;;;;;;;271.38;69.10;;;;;;;0.19;100.00;100472.03;5057952;28;20046;-73
2023/12/01 00:53:11;;;;;;;267.77;69.10;;;;;;;0.04;100.00;100469.81;5081409;28;20152;-73
2023/12/01 00:55:36;;;;;;;270.38;72.03;;;;;;;0.08;100.00;100475.84;5083192;28;20043;-73
2023/12/01 00:58:02;;;;;;;268.80;68.63;;;;;;;0.01;100.00;100471.69;5072446;28;20038;-73
2023/12/01 01:00:28;;;;;;;276.77;70.60;;;;;;;0.07;100.00;100479.38;5083579;27;20116;-72
2023/12/01 01:02:53;;;;;;;273.95;70.80;;;;;;;0.03;100.00;100473.34;5063089;28;20032;-73
2023/12/01 01:05:19;;;;;;;239.60;63.58;;;;;;;0.15;100.00;100474.78;5081637;28;20447;-73
2023/12/01 01:07:45;;;;;;;238.93;65.60;;;;;;;0.17;100.00;100473.84;5065738;28;20122;-73
2023/12/01 01:10:10;;;;;;;245.68;66.63;;;;;;;0.02;100.00;100473.38;5080234;28;20049;-73
2023/12/01 01:12:36;;;;;;;245.73;63.10;;;;;;;0.23;100.00;100478.91;5081152;28;20036;-73
2023/12/01 01:15:04;;;;;;;245.25;66.40;;;;;;;0.15;100.00;100470.41;5080957;28;20158;-73
2023/12/01 01:17:33;;;;;;;242.90;63.42;;;;;;;0.16;100.00;100480.00;5074412;28;20028;-73
2023/12/01 01:20:00;;;;;;;211.25;59.15;;;;;;;0.03;100.00;100478.59;5097005;27;20027;-73
2023/12/01 01:22:26;;;;;;;214.63;60.00;;;;;;;0.00;100.00;100481.31;5080695;28;20041;-73
2023/12/01 01:24:52;;;;;;;175.90;52.58;;;;;;;0.20;100.00;100478.13;5074453;28;20028;-74
2023/12/01 01:27:18;;;;;;;185.13;55.10;;;;;;;0.10;100.00;100477.53;5061022;28;20024;-73
2023/12/01 01:29:43;;;;;;;168.07;50.10;;;;;;;0.08;100.00;100481.94;5081583;28;20774;-73
2023/12/01 01:32:09;;;;;;;148.30;51.13;;;;;;;0.08;100.00;100467.97;5045084;28;20036;-73
2023/12/01 01:34:34;;;;;;;163.65;50.83;;;;;;;0.20;100.00;100473.78;5072639;28;20045;-73
2023/12/01 01:37:00;;;;;;;160.70;49.70;;;;;;;0.17;100.00;100468.59;5077544;28;20040;-73
2023/12/01 01:39:26;;;;;;;158.02;48.70;;;;;;;0.20;100.00;100475.50;5065440;28;20593;-73
2023/12/01 01:41:53;;;;;;;149.15;49.10;;;;;;;0.15;100.00;100475.66;5071937;28;20040;-73
2023/12/01 01:44:18;;;;;;;166.02;47.50;;;;;;;0.12;100.00;100475.72;5088912;27;20036;-73
2023/12/01 01:46:45;;;;;;;165.52;50.15;;;;;;;0.37;100.00;100477.69;5071404;28;20029;-73
2023/12/01 01:49:11;;;;;;;150.10;46.30;;;;;;;0.22;100.00;100478.97;5076927;28;20111;-74
2023/12/01 01:51:38;;;;;;;153.05;49.92;;;;;;;0.14;100.00;100480.91;5056865;28;20117;-73
2023/12/01 01:54:04;;;;;;;140.98;45.55;;;;;;;0.16;100.00;100480.00;5078197;28;20036;-73
2023/12/01 01:56:32;;;;;;;127.43;42.95;;;;;;;0.13;100.00;100477.44;5074242;28;21018;-73
2023/12/01 01:58:58;;;;;;;141.25;47.75;;;;;;;0.17;100.00;100480.84;5062422;28;20047;-73
2023/12/01 02:01:25;;;;;;;144.82;46.75;;;;;;;0.04;100.00;100482.91;5064855;28;20576;-73
2023/12/01 02:03:54;;;;;;;142.70;48.78;;;;;;;0.16;100.00;100484.38;5062860;28;20081;-73
2023/12/01 02:06:19;;;;;;;122.15;41.72;;;;;;;0.04;100.00;100482.91;5079030;28;20047;-73
2023/12/01 02:08:45;;;;;;;115.82;39.97;;;;;;;-0.07;100.00;100483.19;5082945;28;20050;-73
2023/12/01 02:11:14;;;;;;;108.90;37.22;;;;;;;0.13;100.00;100485.31;5075413;28;20515;-73
2023/12/01 02:13:40;;;;;;;118.18;38.33;;;;;;;0.17;100.00;100476.47;5093546;27;20029;-73
2023/12/01 02:16:09;;;;;;;120.70;40.58;;;;;;;0.27;100.00;100478.84;5057085;28;20032;-73
2023/12/01 02:18:35;;;;;;;114.20;40.33;;;;;;;0.39;100.00;100476.72;5074268;28;20043;-73
2023/12/01 02:21:01;;;;;;;126.03;40.80;;;;;;;0.32;100.00;100476.97;5061276;28;21088;-73
2023/12/01 02:23:27;;;;;;;126.47;40.97;;;;;;;0.32;100.00;100479.59;5059983;28;20083;-73
2023/12/01 02:25:53;;;;;;;120.65;41.97;;;;;;;0.39;100.00;100475.88;5077681;28;20083;-73
2023/12/01 02:28:18;;;;;;;112.43;41.85;;;;;;;0.38;100.00;100474.16;5073958;27;20037;-73
2023/12/01 02:30:52;;;;;;;124.90;40.78;;;;;;;0.41;100.00;100481.97;5074348;28;20032;-73
2023/12/01 02:33:18;;;;;;;116.15;38.95;;;;;;;0.49;100.00;100472.94;5083550;28;20342;-73
2023/12/01 02:35:48;;;;;;;138.52;44.58;;;;;;;0.44;100.00;100476.59;5076647;28;20207;-73
2023/12/01 02:38:15;;;;;;;133.82;41.85;;;;;;;0.36;100.00;100482.09;5084188;28;20036;-73
2023/12/01 02:40:43;;;;;;;126.60;42.33;;;;;;;0.35;100.00;100476.84;5056484;28;20055;-73
2023/12/01 02:43:11;;;;;;;129.85;42.15;;;;;;;0.54;100.00;100474.59;5073706;28;20059;-73
2023/12/01 02:45:37;;;;;;;125.35;40.80;;;;;;;0.51;100.00;100472.94;5075314;28;20074;-73
2023/12/01 02:48:03;;;;;;;119.95;41.63;;;;;;;0.34;100.00;100468.13;5078166;28;20135;-73
2023/12/01 02:50:31;;;;;;;124.57;42.92;;;;;;;0.33;100.00;100470.81;5075832;28;20036;-73
2023/12/01 02:52:57;;;;;;;125.53;42.40;;;;;;;0.51;100.00;100465.06;5073191;28;20043;-73
2023/12/01 02:55:23;;;;;;;129.80;42.38;;;;;;;0.54;100.00;100466.72;5055457;28;20047;-73
2023/12/01 02:57:48;;;;;;;124.03;38.70;;;;;;;0.55;100.00;100466.66;5091202;27;20044;-73
2023/12/01 03:00:14;;;;;;;117.15;40.20;;;;;;;0.62;100.00;100462.13;5074554;28;20067;-73
2023/12/01 03:02:41;;;;;;;124.30;40.50;;;;;;;0.71;100.00;100462.72;5078852;28;20055;-73
2023/12/01 03:05:08;;;;;;;108.10;36.70;;;;;;;0.73;100.00;100465.28;5063107;28;20036;-73
2023/12/01 03:07:35;;;;;;;119.43;41.15;;;;;;;0.85;100.00;100461.44;5079844;28;20172;-73
2023/12/01 03:10:01;;;;;;;118.82;38.67;;;;;;;0.81;100.00;100467.72;5097538;27;20061;-74
2023/12/01 03:12:26;;;;;;;104.53;36.33;;;;;;;0.74;100.00;100459.13;5088176;28;20036;-72
2023/12/01 03:14:52;;;;;;;108.70;36.80;;;;;;;0.70;100.00;100463.63;5076346;28;20636;-73
2023/12/01 03:17:17;;;;;;;108.80;36.47;;;;;;;0.77;100.00;100461.69;5057296;28;20794;-73
2023/12/01 03:19:45;;;;;;;108.15;37.30;;;;;;;0.73;100.00;100466.16;5075740;28;20033;-73
2023/12/01 03:22:11;;;;;;;116.15;39.17;;;;;;;0.85;100.00;100470.16;5080717;28;20032;-74
2023/12/01 03:24:37;;;;;;;104.90;37.58;;;;;;;0.78;100.00;100463.41;5078729;28;20106;-73
2023/12/01 03:27:03;;;;;;;114.50;36.88;;;;;;;0.87;100.00;100471.00;5074516;28;20041;-73
2023/12/01 03:29:28;;;;;;;115.32;39.30;;;;;;;0.93;100.00;100468.19;5073746;28;21031;-73
2023/12/01 03:31:54;;;;;;;119.82;39.58;;;;;;;0.82;100.00;100472.06;5076306;28;20620;-73
2023/12/01 03:34:19;;;;;;;110.60;38.35;;;;;;;0.75;100.00;100474.84;5061779;28;20053;-73
2023/12/01 03:36:45;;;;;;;115.53;38.65;;;;;;;0.79;100.00;100467.72;5061532;28;20180;-73
2023/12/01 03:39:10;;;;;;;99.35;35.85;;;;;;;0.78;100.00;100472.13;5059037;28;20053;-73
2023/12/01 03:41:37;;;;;;;100.63;35.58;;;;;;;0.67;100.00;100482.06;5058478;28;20041;-73
2023/12/01 03:44:02;;;;;;;87.45;32.55;;;;;;;0.55;100.00;100474.53;5053420;28;20029;-73
2023/12/01 03:46:28;;;;;;;102.00;36.30;;;;;;;0.75;100.00;100482.72;5056670;28;20434;-73
2023/12/01 03:48:53;;;;;;;101.63;32.97;;;;;;;0.69;100.00;100475.00;5056567;28;20961;-73
2023/12/01 03:51:18;;;;;;;97.22;33.05;;;;;;;0.65;100.00;100483.91;5054162;28;20048;-73
2023/12/01 03:53:44;;;;;;;89.80;32.70;;;;;;;0.68;100.00;100488.19;5054826;28;20048;-73
2023/12/01 03:56:10;;;;;;;89.07;31.60;;;;;;;0.74;100.00;100495.88;5084906;27;20036;-73
2023/12/01 03:58:36;;;;;;;85.13;31.58;;;;;;;0.69;100.00;100489.91;5050267;28;20490;-73
2023/12/01 04:01:05;;;;;;;97.05;33.72;;;;;;;0.73;100.00;100492.38;5055247;28;20796;-73
2023/12/01 04:03:31;;;;;;;95.10;31.30;;;;;;;0.73;100.00;100494.16;5053177;28;20087;-73
2023/12/01 04:06:01;;;;;;;88.10;32.45;;;;;;;0.74;100.00;100488.84;5057934;28;20041;-73
2023/12/01 04:08:27;;;;;;;89.18;32.67;;;;;;;0.68;100.00;100489.03;5053082;28;20037;-73
2023/12/01 04:10:53;;;;;;;95.35;32.67;;;;;;;0.66;100.00;100496.09;5056277;28;20041;-73
2023/12/01 04:13:20;;;;;;;86.90;31.02;;;;;;;0.67;100.00;100504.84;5052627;28;20037;-73
2023/12/01 04:15:46;;;;;;;98.97;32.78;;;;;;;0.67;100.00;100496.97;5058655;28;20115;-73
2023/12/01 04:18:11;;;;;;;86.50;29.80;;;;;;;0.70;100.00;100494.22;5056376;28;20036;-73
2023/12/01 04:20:38;;;;;;;83.13;30.20;;;;;;;0.60;100.00;100498.03;5057838;28;20037;-73
2023/12/01 04:23:14;;;;;;;80.82;30.17;;;;;;;0.56;100.00;100509.53;5053506;28;20029;-73
2023/12/01 04:25:45;;;;;;;86.22;30.15;;;;;;;0.48;100.00;100509.72;5056112;28;20033;-73
2023/12/01 04:28:11;;;;;;;80.13;27.17;;;;;;;0.47;100.00;100510.63;5051380;28;20068;-73
2023/12/01 04:30:36;;;;;;;83.05;29.33;;;;;;;0.55;100.00;100515.66;5055642;28;20041;-73
2023/12/01 04:33:02;;;;;;;85.05;30.75;;;;;;;0.56;100.00;100517.41;5058390;28;20037;-73
2023/12/01 04:35:30;;;;;;;84.45;29.17;;;;;;;0.58;100.00;100515.59;5065888;27;20084;-73
2023/12/01 04:37:57;;;;;;;91.32;28.83;;;;;;;0.61;100.00;100518.13;5061923;28;20024;-73
2023/12/01 04:40:24;;;;;;;76.53;26.45;;;;;;;0.62;100.00;100520.69;5073044;28;20029;-73
2023/12/01 04:42:51;;;;;;;77.60;27.98;;;;;;;0.62;100.00;100518.09;5075567;28;20045;-73
2023/12/01 04:45:18;;;;;;;78.80;25.25;;;;;;;0.51;100.00;100513.13;5072617;28;20131;-73
2023/12/01 04:47:46;;;;;;;75.43;28.13;;;;;;;0.52;100.00;100517.47;5079328;28;20836;-73
2023/12/01 04:50:13;;;;;;;82.25;29.42;;;;;;;0.64;100.00;100521.50;5074458;28;20040;-73
2023/12/01 04:52:44;;;;;;;82.28;31.05;;;;;;;0.63;100.00;100525.03;5073587;28;20033;-73
2023/12/01 04:55:12;;;;;;;74.55;27.77;;;;;;;0.54;100.00;100516.56;5071429;28;20069;-73
2023/12/01 04:57:38;;;;;;;82.50;28.98;;;;;;;0.56;100.00;100523.50;5054731;28;20029;-73
2023/12/01 05:00:19;;;;;;;81.03;28.65;;;;;;;0.67;100.00;100529.31;5058585;28;20044;-73
2023/12/01 05:02:47;;;;;;;86.47;28.50;;;;;;;0.66;100.00;100535.47;5075087;28;20037;-73
2023/12/01 05:05:15;;;;;;;86.20;29.83;;;;;;;0.80;100.00;100534.19;5072181;28;20060;-73
2023/12/01 05:07:40;;;;;;;76.35;26.92;;;;;;;0.76;100.00;100538.69;5071991;28;20036;-73
2023/12/01 05:10:08;;;;;;;76.18;29.33;;;;;;;0.81;100.00;100538.56;5074799;28;20586;-73
2023/12/01 05:12:37;;;;;;;77.10;28.67;;;;;;;0.79;100.00;100546.47;5075448;28;20032;-73
2023/12/01 05:15:03;;;;;;;77.90;28.52;;;;;;;0.79;100.00;100543.84;5077591;28;20143;-73
2023/12/01 05:17:28;;;;;;;83.90;31.30;;;;;;;0.74;100.00;100548.34;5061684;28;20055;-73
2023/12/01 05:19:56;;;;;;;77.60;27.52;;;;;;;0.91;100.00;100558.41;5079568;28;20036;-74
2023/12/01 05:22:21;;;;;;;82.63;30.30;;;;;;;0.77;100.00;100549.13;5074519;28;20044;-73
2023/12/01 05:24:46;;;;;;;78.10;30.20;;;;;;;0.78;100.00;100555.25;5075672;28;20040;-73
2023/12/01 05:27:12;;;;;;;80.55;29.33;;;;;;;0.74;100.00;100553.59;5074899;28;20025;-73
2023/12/01 05:29:38;;;;;;;75.72;28.73;;;;;;;0.81;100.00;100554.31;5080935;28;21319;-72
2023/12/01 05:32:04;;;;;;;80.07;30.02;;;;;;;0.80;100.00;100553.44;5076554;28;20043;-72
2023/12/01 05:34:29;;;;;;;72.65;26.33;;;;;;;0.82;100.00;100556.88;5075193;27;20048;-73
2023/12/01 05:36:55;;;;;;;82.10;30.17;;;;;;;0.84;100.00;100556.84;5076141;27;20086;-73
2023/12/01 05:39:21;;;;;;;88.22;31.23;;;;;;;0.91;100.00;100563.66;5057264;27;20040;-75
2023/12/01 05:41:46;;;;;;;75.78;28.42;;;;;;;0.93;100.00;100573.19;5074673;27;20083;-73
2023/12/01 05:44:12;;;;;;;78.20;29.38;;;;;;;0.86;100.00;100569.03;5074439;27;20032;-73
2023/12/01 05:46:38;;;;;;;81.65;29.27;;;;;;;0.77;100.00;100567.50;5074395;28;20139;-75
2023/12/01 05:49:04;;;;;;;77.47;28.98;;;;;;;0.84;100.00;100572.56;5056275;28;20499;-74
2023/12/01 05:51:33;;;;;;;81.15;28.13;;;;;;;0.88;100.00;100575.06;5056290;27;20051;-74
2023/12/01 05:53:58;;;;;;;77.25;28.00;;;;;;;0.87;100.00;100576.00;5073565;28;20036;-74
2023/12/01 05:56:24;;;;;;;83.88;30.17;;;;;;;0.72;100.00;100582.50;5078424;28;20047;-74
2023/12/01 05:58:49;;;;;;;68.60;26.98;;;;;;;0.68;100.00;100583.50;5083165;28;20075;-74
2023/12/01 06:01:15;;;;;;;83.75;31.60;;;;;;;0.82;100.00;100591.00;5078355;27;20871;-74
2023/12/01 06:03:40;;;;;;;79.25;29.77;;;;;;;0.82;100.00;100592.78;5074732;28;20079;-74
2023/12/01 06:06:06;;;;;;;84.18;29.90;;;;;;;0.89;100.00;100595.16;5075143;28;20028;-74
2023/12/01 06:08:32;;;;;;;78.03;28.45;;;;;;;0.82;100.00;100583.13;5079629;28;20079;-75
2023/12/01 06:10:57;;;;;;;91.30;30.52;;;;;;;0.76;100.00;100597.28;5054918;28;20834;-74
2023/12/01 06:13:23;;;;;;;82.95;28.65;;;;;;;0.58;100.00;100602.16;5078422;27;20033;-75
2023/12/01 06:15:48;;;;;;;74.13;26.70;;;;;;;0.45;100.00;100605.09;5076211;28;20029;-74
2023/12/01 06:18:14;;;;;;;71.38;28.10;;;;;;;0.52;100.00;100605.81;5081022;28;20358;-74
2023/12/01 06:20:39;;;;;;;67.68;26.30;;;;;;;0.19;100.00;100610.13;5080928;27;20175;-74
2023/12/01 06:23:05;;;;;;;69.03;26.42;;;;;;;0.34;100.00;100606.25;5079061;27;20044;-74
2023/12/01 06:25:33;;;;;;;76.72;28.52;;;;;;;0.14;100.00;100601.50;5063303;28;20036;-74
2023/12/01 06:28:01;;;;;;;65.78;25.90;;;;;;;0.04;100.00;100600.88;5059665;28;20102;-74
2023/12/01 06:30:28;;;;;;;68.60;25.77;;;;;;;0.07;100.00;100599.94;5064316;28;20119;-74
2023/12/01 06:32:54;;;;;;;70.22;26.50;;;;;;;0.09;100.00;100598.13;5081940;28;20044;-74
2023/12/01 06:35:20;;;;;;;69.60;26.48;;;;;;;0.04;100.00;100613.13;5076851;27;20234;-74
2023/12/01 06:37:47;;;;;;;72.38;26.75;;;;;;;0.02;100.00;100609.69;5076275;28;20043;-74
2023/12/01 06:40:17;;;;;;;73.55;27.42;;;;;;;0.08;100.00;100618.25;5075175;27;20032;-75
2023/12/01 06:42:43;;;;;;;71.53;27.98;;;;;;;0.04;100.00;100632.31;5064694;28;20118;-74
2023/12/01 06:45:10;;;;;;;75.35;28.13;;;;;;;0.11;100.00;100627.81;5076052;28;20052;-74
2023/12/01 06:47:37;;;;;;;64.75;25.15;;;;;;;-0.07;100.00;100637.81;5077995;28;20037;-74
2023/12/01 06:50:03;;;;;;;70.97;27.35;;;;;;;-0.16;100.00;100639.78;5076394;28;20040;-73
2023/12/01 06:52:28;;;;;;;63.30;24.85;;;;;;;-0.08;100.00;100641.34;5044103;28;20563;-74
2023/12/01 06:54:54;;;;;;;73.93;26.98;;;;;;;-0.06;100.00;100638.69;5075170;28;20032;-73
2023/12/01 06:57:19;;;;;;;72.40;24.77;;;;;;;-0.09;100.00;100646.63;5086190;27;20032;-73
2023/12/01 06:59:45;;;;;;;71.78;26.75;;;;;;;-0.11;100.00;100640.53;5083045;27;20033;-73
2023/12/01 07:02:11;;;;;;;72.47;27.80;;;;;;;-0.10;100.00;100644.88;5080595;28;20040;-73
2023/12/01 07:04:36;;;;;;;70.82;27.13;;;;;;;-0.15;100.00;100650.25;5078004;28;20411;-74
2023/12/01 07:07:02;;;;;;;72.10;26.33;;;;;;;-0.14;100.00;100646.72;5077868;28;20040;-73
2023/12/01 07:09:28;;;;;;;75.07;26.95;;;;;;;-0.21;100.00;100655.59;5060788;28;20075;-73
2023/12/01 07:11:54;;;;;;;82.85;29.05;;;;;;;-0.26;100.00;100667.94;5082424;27;20458;-73
2023/12/01 07:14:23;;;;;;;64.18;26.60;;;;;;;-0.40;100.00;100668.25;5093272;27;20935;-73
2023/12/01 07:16:49;;;;;;;72.75;28.08;;;;;;;-0.44;100.00;100669.22;5079742;28;20142;-73
2023/12/01 07:19:16;;;;;;;72.05;26.83;;;;;;;-0.38;100.00;100673.47;5075354;28;20622;-73
2023/12/01 07:21:44;;;;;;;71.65;26.65;;;;;;;-0.30;100.00;100677.66;5079518;28;20036;-74
2023/12/01 07:24:10;;;;;;;72.03;27.40;;;;;;;-0.30;100.00;100675.03;5083925;28;20064;-73
2023/12/01 07:26:35;;;;;;;64.30;26.75;;;;;;;-0.38;100.00;100686.56;5074723;28;20028;-74
2023/12/01 07:29:04;;;;;;;72.45;28.15;;;;;;;-0.25;100.00;100688.03;5079275;28;20029;-73
2023/12/01 07:31:35;;;;;;;65.78;26.30;;;;;;;-0.37;100.00;100690.91;5051498;27;20036;-73
2023/12/01 07:34:01;;;;;;;69.05;27.23;;;;;;;-0.42;100.00;100688.38;5076723;28;20035;-74
2023/12/01 07:36:27;;;;;;;62.90;24.73;;;;;;;-0.37;100.00;100691.75;5065605;28;20028;-74
2023/12/01 07:38:53;;;;;;;69.57;25.70;;;;;;;-0.22;100.00;100695.81;5098994;27;20094;-73
2023/12/01 07:41:18;;;;;;;72.85;27.40;;;;;;;-0.22;100.00;100684.47;5078473;28;20037;-73
2023/12/01 07:43:44;;;;;;;66.18;24.42;;;;;;;-0.16;100.00;100687.81;5081977;28;20024;-73
2023/12/01 07:46:09;;;;;;;69.53;26.05;;;;;;;-0.11;100.00;100677.22;5079284;28;20673;-73
2023/12/01 07:48:36;;;;;;;68.82;25.30;;;;;;;-0.09;100.00;100692.03;5062799;28;20498;-73
2023/12/01 07:51:02;;;;;;;67.10;25.48;;;;;;;-0.25;100.00;100698.50;5076100;28;20072;-73
2023/12/01 07:53:28;;;;;;;63.38;26.25;;;;;;;-0.36;100.00;100709.19;5076851;28;20056;-73
2023/12/01 07:55:54;;;;;;;73.13;27.13;;;;;;;-0.26;100.00;100705.47;5057700;28;20093;-75
2023/12/01 07:58:20;;;;;;;65.68;24.98;;;;;;;-0.39;100.00;100700.56;5077404;28;20851;-73
2023/12/01 08:00:46;;;;;;;69.75;25.33;;;;;;;-0.39;100.00;100698.78;5081912;27;20060;-74
2023/12/01 08:03:12;;;;;;;76.05;27.23;;;;;;;-0.45;100.00;100703.28;5076433;28;20054;-73
2023/12/01 08:05:39;;;;;;;71.72;26.58;;;;;;;-0.51;100.00;100704.25;5072747;27;20063;-73
2023/12/01 08:08:05;;;;;;;71.68;25.50;;;;;;;-0.46;100.00;100699.78;5070342;27;20048;-73
2023/12/01 08:10:30;;;;;;;68.35;26.67;;;;;;;-0.44;100.00;100702.41;5072205;28;20048;-74
2023/12/01 08:12:56;;;;;;;72.93;25.83;;;;;;;-0.32;100.00;100705.63;5069630;28;20040;-74
2023/12/01 08:15:23;;;;;;;66.10;26.92;;;;;;;-0.63;100.00;100702.75;5077011;28;20082;-73
2023/12/01 08:17:49;;;;;;;69.43;24.08;;;;;;;-0.51;100.00;100704.25;5088521;27;20033;-74
2023/12/01 08:20:16;;;;;;;70.68;24.80;;;;;;;-0.44;100.00;100698.03;5056887;28;20965;-74
2023/12/01 08:22:43;;;;;;;67.28;25.88;;;;;;;-0.51;100.00;100701.66;5072657;28;20041;-73
2023/12/01 08:25:09;;;;;;;69.20;26.27;;;;;;;-0.34;100.00;100696.94;5074095;28;20071;-73
2023/12/01 08:27:39;;;;;;;72.05;27.60;;;;;;;-0.64;100.00;100706.28;5074072;28;20155;-73
2023/12/01 08:30:05;;;;;;;70.53;26.67;;;;;;;-0.61;100.00;100702.72;5076594;28;20044;-73
2023/12/01 08:32:31;;;;;;;70.82;26.55;;;;;;;-0.45;100.00;100704.16;5071518;28;20032;-73
2023/12/01 08:34:59;;;;;;;74.18;26.70;;;;;;;-0.50;100.00;100700.78;5074801;27;20048;-73
2023/12/01 08:37:24;;;;;;;79.35;26.30;;;;;;;-0.54;100.00;100707.81;5072409;27;20036;-73
2023/12/01 08:39:50;;;;;;;66.88;26.38;;;;;;;-0.41;100.00;100708.41;5047394;28;20130;-73
2023/12/01 08:42:19;;;;;;;74.72;25.88;;;;;;;-0.52;100.00;100710.41;5072442;28;20067;-73
2023/12/01 08:44:44;;;;;;;78.05;28.10;;;;;;;-0.29;100.00;100707.31;5076454;28;20222;-73
2023/12/01 08:47:13;;;;;;;78.60;26.92;;;;;;;-0.21;100.00;100712.38;5080529;28;20107;-73
2023/12/01 08:49:39;;;;;;;71.20;26.42;;;;;;;-0.22;100.00;100716.75;5057613;28;20047;-73
2023/12/01 08:52:05;;;;;;;75.03;25.10;;;;;;;-0.04;100.00;100719.00;5090141;27;20055;-74
2023/12/01 08:54:30;;;;;;;74.88;26.77;;;;;;;0.01;100.00;100718.91;5080361;28;20039;-74
2023/12/01 08:56:58;;;;;;;75.38;27.55;;;;;;;-0.09;100.00;100720.00;5085527;28;20043;-74
2023/12/01 08:59:24;;;;;;;70.35;26.00;;;;;;;-0.31;100.00;100719.56;5077929;28;20037;-74
2023/12/01 09:01:49;;;;;;;75.07;27.65;;;;;;;-0.27;100.00;100723.88;5079661;27;20039;-74
2023/12/01 09:04:15;;;;;;;71.43;24.25;;;;;;;-0.20;100.00;100717.63;5040703;28;20040;-74
2023/12/01 09:06:40;;;;;;;73.60;26.67;;;;;;;-0.14;100.00;100720.09;5080363;28;20044;-74
2023/12/01 09:09:06;;;;;;;68.05;26.98;;;;;;;-0.03;100.00;100717.25;5073567;28;20050;-74
2023/12/01 09:11:31;;;;;;;74.72;27.13;;;;;;;-0.16;100.00;100714.00;5073751;28;20036;-74
2023/12/01 09:13:58;;;;;;;69.15;26.02;;;;;;;-0.17;100.00;100722.78;5077542;28;20040;-74
2023/12/01 09:16:24;;;;;;;72.82;26.13;;;;;;;-0.29;100.00;100718.66;5089565;27;20175;-74
2023/12/01 09:18:50;;;;;;;70.78;26.08;;;;;;;-0.14;100.00;100716.63;5079044;28;20165;-74
2023/12/01 09:21:16;;;;;;;73.47;25.25;;;;;;;-0.35;100.00;100717.91;5075288;28;20483;-74
2023/12/01 09:23:42;;;;;;;64.53;24.73;;;;;;;-0.17;100.00;100727.16;5074016;28;20040;-74
2023/12/01 09:26:07;;;;;;;67.75;24.95;;;;;;;-0.31;100.00;100730.91;5079791;28;20063;-73
2023/12/01 09:28:36;;;;;;;74.68;26.05;;;;;;;-0.26;100.00;100728.19;5074306;28;20139;-73
2023/12/01 09:31:02;;;;;;;71.82;26.40;;;;;;;-0.03;100.00;100723.34;5080713;28;20123;-73
2023/12/01 09:33:28;;;;;;;70.90;25.63;;;;;;;0.15;100.00;100722.09;5074519;28;20039;-73
2023/12/01 09:35:53;;;;;;;70.85;25.23;;;;;;;0.15;100.00;100736.94;5079888;27;20150;-73
2023/12/01 09:38:19;;;;;;;69.13;25.08;;;;;;;0.24;100.00;100732.34;5075460;28;20055;-73
2023/12/01 09:40:44;;;;;;;63.08;25.20;;;;;;;0.22;100.00;100728.91;5056465;28;20041;-73
2023/12/01 09:43:17;;;;;;;69.35;25.95;;;;;;;0.02;100.00;100743.34;5073508;28;25881;-74
2023/12/01 09:45:43;;;;;;;67.43;24.45;;;;;;;-0.02;100.00;100742.56;5079069;28;20032;-73
2023/12/01 09:48:10;;;;;;;59.20;21.95;;;;;;;-0.26;100.00;100746.53;5077529;28;20041;-73
2023/12/01 09:50:36;;;;;;;72.72;24.35;;;;;;;0.02;100.00;100746.84;5081482;28;20044;-74
2023/12/01 09:53:02;;;;;;;63.78;22.55;;;;;;;0.04;100.00;100752.91;5077618;28;20043;-74
2023/12/01 09:55:29;;;;;;;66.25;25.58;;;;;;;0.27;100.00;100754.16;5059998;28;20118;-74
2023/12/01 09:57:56;;;;;;;69.10;25.85;;;;;;;0.39;100.00;100749.47;5076655;28;20133;-74
2023/12/01 10:00:22;;;;;;;70.35;26.00;;;;;;;0.67;100.00;100747.09;5077955;28;20059;-74
2023/12/01 10:02:48;;;;;;;66.30;23.90;;;;;;;0.49;100.00;100744.88;5071925;28;20042;-74
2023/12/01 10:05:13;;;;;;;67.80;24.50;;;;;;;0.69;100.00;100744.41;5078086;28;20025;-74
2023/12/01 10:07:40;;;;;;;57.42;23.38;;;;;;;0.71;100.00;100750.50;5075416;28;20036;-74
2023/12/01 10:10:25;;;;;;;59.42;22.70;;;;;;;0.54;100.00;100753.50;5064961;28;20086;-74
2023/12/01 10:12:58;;;;;;;58.97;24.17;;;;;;;0.63;100.00;100749.81;5053301;28;20085;-74
2023/12/01 10:15:25;;;;;;;54.08;22.42;;;;;;;0.47;100.00;100747.56;5080326;28;20024;-74
2023/12/01 10:18:07;;;;;;;56.20;22.08;;;;;;;0.66;100.00;100760.25;5078240;28;20024;-74
2023/12/01 10:20:32;;;;;;;51.67;21.70;;;;;;;0.60;100.00;100755.13;5087428;27;20135;-74
2023/12/01 10:22:58;;;;;;;58.83;22.63;;;;;;;0.41;100.00;100757.34;5071936;28;20530;-74
2023/12/01 10:25:23;;;;;;;52.40;22.77;;;;;;;0.32;100.00;100760.16;5075073;28;20044;-73
2023/12/01 10:27:55;;;;;;;55.38;21.77;;;;;;;0.48;100.00;100749.28;5057845;28;20048;-74
2023/12/01 10:30:22;;;;;;;51.88;21.98;;;;;;;0.43;100.00;100748.53;5076165;28;20558;-74
2023/12/01 10:32:47;;;;;;;49.47;20.58;;;;;;;0.52;100.00;100753.56;5079847;27;20799;-74
2023/12/01 10:35:13;;;;;;;54.13;21.42;;;;;;;0.44;100.00;100759.88;5062235;28;20044;-74
2023/12/01 10:37:39;;;;;;;54.00;20.92;;;;;;;0.40;100.00;100759.09;5082121;28;20037;-74
2023/12/01 10:40:05;;;;;;;57.20;22.45;;;;;;;0.22;100.00;100759.50;5077857;28;20032;-74
2023/12/01 10:42:34;;;;;;;52.35;20.42;;;;;;;0.24;100.00;100758.56;5079672;28;20093;-74
2023/12/01 10:45:04;;;;;;;55.63;22.17;;;;;;;0.18;100.00;100757.84;5073622;28;20837;-74
2023/12/01 10:47:32;;;;;;;52.38;21.15;;;;;;;0.17;100.00;100762.22;5054896;27;20857;-73
2023/12/01 10:49:58;;;;;;;56.15;22.55;;;;;;;0.44;100.00;100749.38;5070457;27;20040;-73
2023/12/01 10:52:25;;;;;;;53.58;22.23;;;;;;;0.43;100.00;100750.28;5076014;27;20036;-73
2023/12/01 10:54:52;;;;;;;51.28;20.25;;;;;;;0.63;100.00;100736.69;5069589;28;20044;-73
2023/12/01 10:57:38;;;;;;;51.25;21.23;;;;;;;0.49;100.00;100744.88;5067364;27;20130;-73
2023/12/01 11:00:05;;;;;;;49.78;20.52;;;;;;;0.77;100.00;100743.34;5075240;28;20051;-72
2023/12/01 11:02:33;;;;;;;46.92;19.75;;;;;;;0.65;100.00;100735.78;5069686;28;20067;-73